createdAt,value
2023-04-18T00:01:46.714Z,12.38
2023-04-18T00:04:18.373Z,11.90
2023-04-18T00:06:49.721Z,11.55
2023-04-18T00:09:17.896Z,11.48
2023-04-18T00:11:45.993Z,11.10
2023-04-18T00:14:14.571Z,11.57
2023-04-18T00:16:43.351Z,11.63
2023-04-18T00:19:11.447Z,11.57
2023-04-18T00:21:44.999Z,11.13
2023-04-18T00:24:14.938Z,12.45
2023-04-18T00:26:43.199Z,11.00
2023-04-18T00:29:11.219Z,11.48
2023-04-18T00:31:39.329Z,11.80
2023-04-18T00:34:07.517Z,11.60
2023-04-18T00:36:35.573Z,12.40
2023-04-18T00:39:03.717Z,11.48
2023-04-18T00:41:33.186Z,11.45
2023-04-18T00:44:01.314Z,11.93
2023-04-18T00:46:29.516Z,11.40
2023-04-18T00:48:57.653Z,12.50
2023-04-18T00:51:25.715Z,12.13
2023-04-18T00:53:53.821Z,11.88
2023-04-18T00:56:21.882Z,12.40
2023-04-18T00:58:51.444Z,12.20
2023-04-18T01:01:19.473Z,12.27
2023-04-18T01:03:47.707Z,11.80
2023-04-18T01:06:15.903Z,13.35
2023-04-18T01:08:44.178Z,12.70
2023-04-18T01:11:12.179Z,12.60
2023-04-18T01:13:40.295Z,12.10
2023-04-18T01:16:09.826Z,12.23
2023-04-18T01:18:40.522Z,13.60
2023-04-18T01:21:08.628Z,13.25
2023-04-18T01:23:36.707Z,12.32
2023-04-18T01:26:06.337Z,12.20
2023-04-18T01:28:37.183Z,12.43
2023-04-18T01:31:05.291Z,13.05
2023-04-18T01:33:33.435Z,12.98
2023-04-18T01:36:01.486Z,13.82
2023-04-18T01:38:29.570Z,12.40
2023-04-18T01:40:57.706Z,11.45
2023-04-18T01:43:27.167Z,12.77
2023-04-18T01:45:55.211Z,12.52
2023-04-18T01:48:23.272Z,13.68
2023-04-18T01:50:51.310Z,12.88
2023-04-18T01:53:19.406Z,11.77
2023-04-18T01:55:47.536Z,13.18
2023-04-18T01:58:16.339Z,13.15
2023-04-18T02:00:46.006Z,12.07
2023-04-18T02:03:14.357Z,12.82
2023-04-18T02:05:42.507Z,13.07
2023-04-18T02:08:11.755Z,12.18
2023-04-18T02:10:42.727Z,13.43
2023-04-18T02:13:11.147Z,12.13
2023-04-18T02:15:41.668Z,12.77
2023-04-18T02:18:11.664Z,13.48
2023-04-18T02:20:42.699Z,12.45
2023-04-18T02:23:10.894Z,12.55
2023-04-18T02:25:39.521Z,12.45
2023-04-18T02:28:07.596Z,12.02
2023-04-18T02:30:35.769Z,13.35
2023-04-18T02:33:03.956Z,11.75
2023-04-18T02:35:33.552Z,11.68
2023-04-18T02:38:01.665Z,13.15
2023-04-18T02:40:29.707Z,11.50
2023-04-18T02:42:58.297Z,12.60
2023-04-18T02:45:26.531Z,12.00
2023-04-18T02:47:56.554Z,12.35
2023-04-18T02:50:25.193Z,12.80
2023-04-18T02:52:54.729Z,12.15
2023-04-18T02:55:23.047Z,11.75
2023-04-18T02:57:51.202Z,11.63
2023-04-18T03:00:19.764Z,11.32
2023-04-18T03:02:47.967Z,12.23
2023-04-18T03:05:16.177Z,11.60
2023-04-18T03:07:44.213Z,11.52
2023-04-18T03:10:13.741Z,12.18
2023-04-18T03:12:41.819Z,11.75
2023-04-18T03:15:10.636Z,11.45
2023-04-18T03:17:38.756Z,12.82
2023-04-18T03:20:08.069Z,11.80
2023-04-18T03:22:36.125Z,12.18
2023-04-18T03:25:04.426Z,12.00
2023-04-18T03:27:33.890Z,11.05
2023-04-18T03:30:02.024Z,11.57
2023-04-18T03:32:33.858Z,11.38
2023-04-18T03:35:01.931Z,11.80
2023-04-18T03:37:30.043Z,10.57
2023-04-18T03:39:58.397Z,11.98
2023-04-18T03:42:27.546Z,11.98
2023-04-18T03:44:56.922Z,11.95
2023-04-18T03:47:25.111Z,12.55
2023-04-18T03:49:54.268Z,12.20
2023-04-18T03:52:22.385Z,11.98
2023-04-18T03:54:50.414Z,11.30
2023-04-18T03:57:18.509Z,12.25
2023-04-18T03:59:47.927Z,12.07
2023-04-18T04:02:17.519Z,12.07
2023-04-18T04:04:45.623Z,12.48
2023-04-18T04:07:13.955Z,12.00
2023-04-18T04:09:42.002Z,11.50
2023-04-18T04:12:10.123Z,11.90
2023-04-18T04:14:38.285Z,12.10
2023-04-18T04:17:06.715Z,12.05
2023-04-18T04:19:36.119Z,11.13
2023-04-18T04:22:04.183Z,11.50
2023-04-18T04:24:33.285Z,11.43
2023-04-18T04:27:01.514Z,13.02
2023-04-18T04:29:30.057Z,12.45
2023-04-18T04:31:59.342Z,12.38
2023-04-18T04:34:27.535Z,11.57
2023-04-18T04:36:57.528Z,12.60
2023-04-18T04:39:25.624Z,12.15
2023-04-18T04:41:54.635Z,12.85
2023-04-18T04:44:25.911Z,12.93
2023-04-18T04:46:54.558Z,11.70
2023-04-18T04:49:22.671Z,13.13
2023-04-18T04:51:50.801Z,12.50
2023-04-18T04:54:20.477Z,14.15
2023-04-18T04:56:48.847Z,12.25
2023-04-18T04:59:18.183Z,11.57
2023-04-18T05:01:46.869Z,12.55
2023-04-18T05:04:15.344Z,12.52
2023-04-18T05:06:43.815Z,12.13
2023-04-18T05:09:11.933Z,12.70
2023-04-18T05:11:41.678Z,12.73
2023-04-18T05:14:09.805Z,12.18
2023-04-18T05:16:40.908Z,11.85
2023-04-18T05:19:09.400Z,12.77
2023-04-18T05:21:37.951Z,12.00
2023-04-18T05:24:06.169Z,12.32
2023-04-18T05:26:34.354Z,12.43
2023-04-18T05:29:03.818Z,12.13
2023-04-18T05:31:32.359Z,11.32
2023-04-18T05:34:00.737Z,12.45
2023-04-18T05:36:29.111Z,12.15
2023-04-18T05:38:57.353Z,12.50
2023-04-18T05:41:25.787Z,12.95
2023-04-18T05:44:04.307Z,12.10
2023-04-18T05:46:34.710Z,13.23
2023-04-18T05:49:03.668Z,11.95
2023-04-18T05:51:32.101Z,13.05
2023-04-18T05:54:07.361Z,12.02
2023-04-18T05:56:35.740Z,12.90
2023-04-18T05:59:04.180Z,13.63
2023-04-18T06:01:32.582Z,12.90
2023-04-18T06:04:02.488Z,13.77
2023-04-18T06:06:31.589Z,13.75
2023-04-18T06:09:00.154Z,12.55
2023-04-18T06:11:28.297Z,13.05
2023-04-18T06:13:56.811Z,13.07
2023-04-18T06:16:24.987Z,14.75
2023-04-18T06:18:53.218Z,14.45
2023-04-18T06:21:23.390Z,13.27
2023-04-18T06:23:51.531Z,12.60
2023-04-18T06:26:22.414Z,13.00
2023-04-18T06:28:50.663Z,12.60
2023-04-18T06:31:19.087Z,12.10
2023-04-18T06:33:47.384Z,13.85
2023-04-18T06:36:15.752Z,13.52
2023-04-18T06:38:45.373Z,13.52
2023-04-18T06:41:14.386Z,12.70
2023-04-18T06:43:52.113Z,12.90
2023-04-18T06:46:30.160Z,12.88
2023-04-18T06:48:58.560Z,12.65
2023-04-18T06:51:27.406Z,13.15
2023-04-18T06:53:56.919Z,12.82
2023-04-18T06:56:25.322Z,13.55
2023-04-18T06:58:53.775Z,13.10
2023-04-18T07:01:22.071Z,13.43
2023-04-18T07:03:50.835Z,12.63
2023-04-18T07:06:19.171Z,13.45
2023-04-18T07:08:47.329Z,13.50
2023-04-18T07:11:21.291Z,13.77
2023-04-18T07:13:50.445Z,12.88
2023-04-18T07:16:20.581Z,12.65
2023-04-18T07:18:48.833Z,12.90
2023-04-18T07:21:16.909Z,13.38
2023-04-18T07:23:45.290Z,14.50
2023-04-18T07:26:13.809Z,13.98
2023-04-18T07:28:43.297Z,14.30
2023-04-18T07:31:11.780Z,12.65
2023-04-18T07:33:43.463Z,14.25
2023-04-18T07:36:11.692Z,13.73
2023-04-18T07:38:41.701Z,14.05
2023-04-18T07:41:09.793Z,13.10
2023-04-18T07:43:39.161Z,13.15
2023-04-18T07:46:09.144Z,13.63
2023-04-18T07:48:37.324Z,12.63
2023-04-18T07:51:05.676Z,11.05
2023-04-18T07:53:33.839Z,13.73
2023-04-18T07:56:01.970Z,14.30
2023-04-18T07:58:30.383Z,22.70
2023-04-18T08:00:58.724Z,16.92
2023-04-18T08:03:29.907Z,12.18
2023-04-18T08:05:58.340Z,12.88
2023-04-18T08:08:26.503Z,13.13
2023-04-18T08:10:54.640Z,12.85
2023-04-18T08:13:23.034Z,13.40
2023-04-18T08:15:51.123Z,12.10
2023-04-18T08:18:20.073Z,13.23
2023-04-18T08:20:49.508Z,13.60
2023-04-18T08:23:17.688Z,12.63
2023-04-18T08:25:45.865Z,12.77
2023-04-18T08:28:14.353Z,13.25
2023-04-18T08:30:43.194Z,12.45
2023-04-18T08:33:11.345Z,13.18
2023-04-18T08:35:39.522Z,13.27
2023-04-18T08:38:09.384Z,12.27
2023-04-18T08:40:38.036Z,13.68
2023-04-18T08:43:09.460Z,12.55
2023-04-18T08:45:37.796Z,12.07
2023-04-18T08:48:06.359Z,13.27
2023-04-18T08:50:34.466Z,11.00
2023-04-18T08:53:02.842Z,12.35
2023-04-18T08:55:33.710Z,12.30
2023-04-18T08:58:02.206Z,11.65
2023-04-18T09:00:30.752Z,12.35
2023-04-18T09:02:59.288Z,12.60
2023-04-18T09:05:27.910Z,13.25
2023-04-18T09:07:56.867Z,11.35
2023-04-18T09:10:29.212Z,10.88
2023-04-18T09:12:58.920Z,11.43
2023-04-18T09:15:29.285Z,10.43
2023-04-18T09:17:58.256Z,11.38
2023-04-18T09:20:38.034Z,12.18
2023-04-18T09:23:10.627Z,11.32
2023-04-18T09:25:45.348Z,12.75
2023-04-18T09:28:27.348Z,11.65
2023-04-18T09:30:56.737Z,12.50
2023-04-18T09:33:29.345Z,12.10
2023-04-18T09:36:01.488Z,12.25
2023-04-18T09:38:40.310Z,12.00
2023-04-18T09:41:09.598Z,12.50
2023-04-18T09:43:39.082Z,11.35
2023-04-18T09:46:07.278Z,11.30
2023-04-18T09:48:35.628Z,12.27
2023-04-18T09:51:07.274Z,11.52
2023-04-18T09:53:36.131Z,11.48
2023-04-18T09:56:04.240Z,12.05
2023-04-18T09:58:32.989Z,11.90
2023-04-18T10:01:02.630Z,12.35
2023-04-18T10:03:34.804Z,12.75
2023-04-18T10:06:03.319Z,11.70
2023-04-18T10:08:31.711Z,12.80
2023-04-18T10:10:59.985Z,13.07
2023-04-18T10:13:28.372Z,11.48
2023-04-18T10:15:56.656Z,11.82
2023-04-18T10:18:26.638Z,12.20
2023-04-18T10:21:02.143Z,6.82
2023-04-18T10:23:37.476Z,10.80
2023-04-18T10:26:05.957Z,10.57
2023-04-18T10:28:54.636Z,10.23
2023-04-18T10:31:23.519Z,12.07
2023-04-18T10:34:03.985Z,10.25
2023-04-18T10:36:33.198Z,10.82
2023-04-18T10:39:03.202Z,10.55
2023-04-18T10:41:31.717Z,10.38
2023-04-18T10:44:19.446Z,10.20
2023-04-18T10:47:22.253Z,10.15
2023-04-18T10:50:06.297Z,10.75
2023-04-18T10:52:35.015Z,10.60
2023-04-18T10:55:43.589Z,10.65
2023-04-18T10:58:13.015Z,10.07
2023-04-18T11:00:41.199Z,9.52
2023-04-18T11:03:09.551Z,9.20
2023-04-18T11:05:39.411Z,9.48
2023-04-18T11:08:23.695Z,10.07
2023-04-18T11:10:58.450Z,9.93
2023-04-18T11:13:26.876Z,10.02
2023-04-18T11:15:55.163Z,9.15
2023-04-18T11:18:24.216Z,10.05
2023-04-18T11:20:53.805Z,9.35
2023-04-18T11:23:25.051Z,10.38
2023-04-18T11:25:54.497Z,9.32
2023-04-18T11:28:24.850Z,6.88
2023-04-18T11:30:52.965Z,10.30
2023-04-18T11:33:21.159Z,9.95
2023-04-18T11:35:49.270Z,10.77
2023-04-18T11:38:19.285Z,9.77
2023-04-18T11:40:50.703Z,9.18
2023-04-18T11:43:21.667Z,9.25
2023-04-18T11:45:54.242Z,9.38
2023-04-18T11:48:22.661Z,8.65
2023-04-18T11:50:50.949Z,8.90
2023-04-18T11:53:35.787Z,8.90
2023-04-18T11:56:04.033Z,8.98
2023-04-18T11:58:33.465Z,7.22
2023-04-18T12:01:01.966Z,8.68
2023-04-18T12:03:30.448Z,7.45
2023-04-18T12:06:02.313Z,8.55
2023-04-18T12:08:32.417Z,7.68
2023-04-18T12:11:02.079Z,7.40
2023-04-18T12:13:33.252Z,7.22
2023-04-18T12:16:02.787Z,7.10
2023-04-18T12:18:31.648Z,7.03
2023-04-18T12:21:02.048Z,6.93
2023-04-18T12:23:31.196Z,7.05
2023-04-18T12:26:07.444Z,7.05
2023-04-18T12:28:36.035Z,6.57
2023-04-18T12:31:05.958Z,7.13
2023-04-18T12:33:34.118Z,6.85
2023-04-18T12:36:02.437Z,6.30
2023-04-18T12:38:30.488Z,6.53
2023-04-18T12:40:58.707Z,6.30
2023-04-18T12:43:28.119Z,5.70
2023-04-18T12:45:56.693Z,6.40
2023-04-18T12:48:25.116Z,6.00
2023-04-18T12:50:53.352Z,5.88
2023-04-18T12:53:21.496Z,5.85
2023-04-18T12:55:49.626Z,6.30
2023-04-18T12:58:18.814Z,5.93
2023-04-18T13:00:48.739Z,6.03
2023-04-18T13:03:17.055Z,6.25
2023-04-18T13:05:45.433Z,6.05
2023-04-18T13:08:17.603Z,5.32
2023-04-18T13:10:46.277Z,5.90
2023-04-18T13:13:14.553Z,5.20
2023-04-18T13:15:42.762Z,5.70
2023-04-18T13:18:12.254Z,4.55
2023-04-18T13:20:40.356Z,5.85
2023-04-18T13:23:08.480Z,6.07
2023-04-18T13:25:36.620Z,4.90
2023-04-18T13:28:05.143Z,6.03
2023-04-18T13:30:35.763Z,4.97
2023-04-18T13:33:04.197Z,5.43
2023-04-18T13:35:33.827Z,5.38
2023-04-18T13:38:02.044Z,5.72
2023-04-18T13:40:30.235Z,5.72
2023-04-18T13:42:58.470Z,6.32
2023-04-18T13:45:26.673Z,5.68
2023-04-18T13:47:55.108Z,5.40
2023-04-18T13:50:24.107Z,5.38
2023-04-18T13:52:54.901Z,5.43
2023-04-18T13:55:23.092Z,5.38
2023-04-18T13:57:51.322Z,6.13
2023-04-18T14:00:20.468Z,5.45
2023-04-18T14:02:50.956Z,5.03
2023-04-18T14:05:19.722Z,5.70
2023-04-18T14:07:48.623Z,5.30
2023-04-18T14:10:18.820Z,5.03
2023-04-18T14:12:46.980Z,5.40
2023-04-18T14:15:15.377Z,5.07
2023-04-18T14:17:45.792Z,5.03
2023-04-18T14:20:15.705Z,5.07
2023-04-18T14:22:44.211Z,5.57
2023-04-18T14:25:12.473Z,5.15
2023-04-18T14:27:42.173Z,5.45
2023-04-18T14:30:11.643Z,5.50
2023-04-18T14:32:39.849Z,4.57
2023-04-18T14:35:09.507Z,5.80
2023-04-18T14:37:37.791Z,5.22
2023-04-18T14:40:08.308Z,5.88
2023-04-18T14:42:36.464Z,4.97
2023-04-18T14:45:08.406Z,5.40
2023-04-18T14:47:39.120Z,5.07
2023-04-18T14:50:08.485Z,5.10
2023-04-18T14:52:36.642Z,4.80
2023-04-18T14:55:05.087Z,5.07
2023-04-18T14:57:33.173Z,5.10
2023-04-18T15:00:01.656Z,4.93
2023-04-18T15:02:31.601Z,5.00
2023-04-18T15:05:00.663Z,4.70
2023-04-18T15:07:28.883Z,5.38
2023-04-18T15:09:58.323Z,5.03
2023-04-18T15:12:29.991Z,5.95
2023-04-18T15:14:58.576Z,5.13
2023-04-18T15:17:29.462Z,5.55
2023-04-18T15:20:00.195Z,5.30
2023-04-18T15:22:29.919Z,5.63
2023-04-18T15:25:01.551Z,6.07
2023-04-18T15:27:30.041Z,5.70
2023-04-18T15:29:58.527Z,5.70
2023-04-18T15:32:27.273Z,5.45
2023-04-18T15:34:55.407Z,5.10
2023-04-18T15:37:24.960Z,4.88
2023-04-18T15:39:53.126Z,5.50
2023-04-18T15:42:21.251Z,5.45
2023-04-18T15:44:50.045Z,5.40
2023-04-18T15:47:18.183Z,5.35
2023-04-18T15:49:46.248Z,6.30
2023-04-18T15:52:16.047Z,5.35
2023-04-18T15:54:45.893Z,5.63
2023-04-18T15:57:14.158Z,6.00
2023-04-18T15:59:42.232Z,5.07
2023-04-18T16:02:10.461Z,5.47
2023-04-18T16:04:38.738Z,5.50
2023-04-18T16:07:07.173Z,5.85
2023-04-18T16:09:35.312Z,5.45
2023-04-18T16:12:07.225Z,5.82
2023-04-18T16:14:35.399Z,5.95
2023-04-18T16:17:03.984Z,5.50
2023-04-18T16:19:33.379Z,5.15
2023-04-18T16:22:03.190Z,4.90
2023-04-18T16:24:31.326Z,6.13
2023-04-18T16:26:59.450Z,5.65
2023-04-18T16:29:28.927Z,5.15
2023-04-18T16:31:57.098Z,5.50
2023-04-18T16:34:25.174Z,5.10
2023-04-18T16:36:55.146Z,6.18
2023-04-18T16:39:23.867Z,5.75
2023-04-18T16:41:52.327Z,6.22
2023-04-18T16:44:21.039Z,6.18
2023-04-18T16:46:50.614Z,6.03
2023-04-18T16:49:19.173Z,5.35
2023-04-18T16:51:47.313Z,6.15
2023-04-18T16:54:15.618Z,5.47
2023-04-18T16:56:44.855Z,5.90
2023-04-18T16:59:12.955Z,6.10
2023-04-18T17:01:41.132Z,5.47
2023-04-18T17:04:10.738Z,6.03
2023-04-18T17:06:38.890Z,6.05
2023-04-18T17:09:07.303Z,5.90
2023-04-18T17:11:39.545Z,6.10
2023-04-18T17:14:08.095Z,6.43
2023-04-18T17:16:38.091Z,5.82
2023-04-18T17:19:06.345Z,5.57
2023-04-18T17:21:36.547Z,5.65
2023-04-18T17:24:07.016Z,5.13
2023-04-18T17:26:35.808Z,5.28
2023-04-18T17:29:04.485Z,5.32
2023-04-18T17:31:32.843Z,5.57
2023-04-18T17:34:01.026Z,5.75
2023-04-18T17:36:29.263Z,6.05
2023-04-18T17:39:05.405Z,5.85
2023-04-18T17:41:36.343Z,5.85
2023-04-18T17:44:04.633Z,5.50
2023-04-18T17:46:32.939Z,5.93
2023-04-18T17:49:01.141Z,6.15
2023-04-18T17:51:29.274Z,5.63
2023-04-18T17:53:58.815Z,6.03
2023-04-18T17:56:27.408Z,5.60
2023-04-18T17:58:56.793Z,5.47
2023-04-18T18:01:26.334Z,5.72
2023-04-18T18:03:54.944Z,5.75
2023-04-18T18:06:23.262Z,5.43
2023-04-18T18:08:51.499Z,5.38
2023-04-18T18:11:21.500Z,5.78
2023-04-18T18:13:51.751Z,5.30
2023-04-18T18:16:20.175Z,6.78
2023-04-18T18:18:48.291Z,6.30
2023-04-18T18:21:16.586Z,6.30
2023-04-18T18:23:44.707Z,6.45
2023-04-18T18:26:12.925Z,7.00
2023-04-18T18:28:42.536Z,6.20
2023-04-18T18:31:10.683Z,7.88
2023-04-18T18:33:38.869Z,7.43
2023-04-18T18:36:07.304Z,8.32
2023-04-18T18:38:35.391Z,7.35
2023-04-18T18:41:04.684Z,8.20
2023-04-18T18:43:32.797Z,7.28
2023-04-18T18:46:02.349Z,9.07
2023-04-18T18:48:30.453Z,8.32
2023-04-18T18:50:58.511Z,8.80
2023-04-18T18:53:26.616Z,8.52
2023-04-18T18:55:54.708Z,9.38
2023-04-18T18:58:22.760Z,9.55
2023-04-18T19:00:51.209Z,8.77
2023-04-18T19:03:21.702Z,9.45
2023-04-18T19:05:50.052Z,9.15
2023-04-18T19:08:18.128Z,9.98
2023-04-18T19:10:46.244Z,9.63
2023-04-18T19:13:14.278Z,8.95
2023-04-18T19:15:42.430Z,9.18
2023-04-18T19:18:10.770Z,9.77
2023-04-18T19:20:41.782Z,10.23
2023-04-18T19:23:09.809Z,10.60
2023-04-18T19:25:37.904Z,10.77
2023-04-18T19:28:06.199Z,10.80
2023-04-18T19:30:34.283Z,9.93
2023-04-18T19:33:02.356Z,10.27
2023-04-18T19:35:30.498Z,10.25
2023-04-18T19:38:01.803Z,11.60
2023-04-18T19:40:29.985Z,11.82
2023-04-18T19:42:58.577Z,11.05
2023-04-18T19:45:26.797Z,10.93
2023-04-18T19:47:54.976Z,11.35
2023-04-18T19:50:23.044Z,11.93
2023-04-18T19:52:51.090Z,11.23
2023-04-18T19:55:20.831Z,11.27
2023-04-18T19:57:48.922Z,11.68
2023-04-18T20:00:19.116Z,11.52
2023-04-18T20:02:47.288Z,11.38
2023-04-18T20:05:15.673Z,11.48
2023-04-18T20:07:43.830Z,11.38
2023-04-18T20:10:12.217Z,11.30
2023-04-18T20:12:41.700Z,11.80
2023-04-18T20:15:10.790Z,12.65
2023-04-18T20:17:38.914Z,11.43
2023-04-18T20:20:10.491Z,12.50
2023-04-18T20:22:40.388Z,12.88
2023-04-18T20:25:09.005Z,11.77
2023-04-18T20:27:37.109Z,12.55
2023-04-18T20:30:08.588Z,11.70
2023-04-18T20:32:36.899Z,12.70
2023-04-18T20:35:05.561Z,12.90
2023-04-18T20:37:36.853Z,12.07
2023-04-18T20:40:08.079Z,11.70
2023-04-18T20:42:37.160Z,11.88
2023-04-18T20:45:11.300Z,12.70
2023-04-18T20:47:40.129Z,13.90
2023-04-18T20:50:10.754Z,12.13
2023-04-18T20:52:38.840Z,12.90
2023-04-18T20:55:08.053Z,11.68
2023-04-18T20:57:36.945Z,12.82
2023-04-18T21:00:08.227Z,11.50
2023-04-18T21:02:36.627Z,11.77
2023-04-18T21:05:05.120Z,11.70
2023-04-18T21:07:33.243Z,11.95
2023-04-18T21:10:01.338Z,12.20
2023-04-18T21:12:29.493Z,11.55
2023-04-18T21:14:57.603Z,13.63
2023-04-18T21:17:27.333Z,15.13
2023-04-18T21:19:56.432Z,12.20
2023-04-18T21:22:24.683Z,13.00
2023-04-18T21:24:52.840Z,12.25
2023-04-18T21:27:20.932Z,13.73
2023-04-18T21:29:49.032Z,11.98
2023-04-18T21:32:17.144Z,12.05
2023-04-18T21:34:46.582Z,11.77
2023-04-18T21:37:14.676Z,12.32
2023-04-18T21:39:42.747Z,12.57
2023-04-18T21:42:11.882Z,11.82
2023-04-18T21:44:39.976Z,11.82
2023-04-18T21:47:08.140Z,12.70
2023-04-18T21:49:36.218Z,14.27
2023-04-18T21:52:05.990Z,16.65
2023-04-18T21:54:34.051Z,12.50
2023-04-18T21:57:02.748Z,12.77
2023-04-18T21:59:31.106Z,12.48
2023-04-18T22:01:59.276Z,12.98
2023-04-18T22:04:27.737Z,12.07
2023-04-18T22:06:56.965Z,13.93
2023-04-18T22:09:26.427Z,13.15
2023-04-18T22:11:57.057Z,11.10
2023-04-18T22:14:26.153Z,11.38
2023-04-18T22:16:54.781Z,11.15
2023-04-18T22:19:22.871Z,11.75
2023-04-18T22:21:51.025Z,10.90
2023-04-18T22:24:19.724Z,10.85
2023-04-18T22:26:49.188Z,11.45
2023-04-18T22:29:17.317Z,11.27
2023-04-18T22:31:45.433Z,10.43
2023-04-18T22:34:13.808Z,10.30
2023-04-18T22:36:42.853Z,10.40
2023-04-18T22:39:12.144Z,10.63
2023-04-18T22:41:40.383Z,10.48
2023-04-18T22:44:09.811Z,10.88
2023-04-18T22:46:38.813Z,10.57
2023-04-18T22:49:07.318Z,10.13
2023-04-18T22:51:35.405Z,10.02
2023-04-18T22:54:03.501Z,10.68
2023-04-18T22:56:31.578Z,9.63
2023-04-18T22:58:59.632Z,10.82
2023-04-18T23:01:29.100Z,9.93
2023-04-18T23:03:57.468Z,10.30
2023-04-18T23:06:28.045Z,10.25
2023-04-18T23:08:56.572Z,10.13
2023-04-18T23:11:24.763Z,10.70
2023-04-18T23:13:52.818Z,10.10
2023-04-18T23:16:21.099Z,9.35
2023-04-18T23:18:50.611Z,10.57
2023-04-18T23:21:18.771Z,10.00
2023-04-18T23:23:46.931Z,10.05
2023-04-18T23:26:15.170Z,10.88
2023-04-18T23:28:43.411Z,10.48
2023-04-18T23:31:11.845Z,10.40
2023-04-18T23:33:39.926Z,10.05
2023-04-18T23:36:10.055Z,9.15
2023-04-18T23:38:38.479Z,10.77
2023-04-18T23:41:06.717Z,10.15
2023-04-18T23:43:35.248Z,10.20
2023-04-18T23:46:03.367Z,10.55
2023-04-18T23:48:31.402Z,11.10
2023-04-18T23:50:59.512Z,10.07
2023-04-18T23:53:29.101Z,11.02
2023-04-18T23:55:57.199Z,11.27
2023-04-18T23:58:26.479Z,11.50
